createdAt,value
2016-08-11T00:19:48.919Z,1
2016-08-11T01:58:40.838Z,1
2016-08-11T05:54:47.416Z,21
2016-08-11T06:54:20.125Z,37
2016-08-11T06:56:22.555Z,40
2016-08-11T07:03:24.759Z,42
2016-08-11T07:14:30.563Z,40
2016-08-11T07:29:39.998Z,35
2016-08-11T09:24:39.394Z,35
2016-08-11T09:25:39.929Z,39
2016-08-11T09:26:40.471Z,38
2016-08-11T09:27:40.880Z,45
2016-08-11T09:28:44.316Z,42
2016-08-11T09:30:42.478Z,45
2016-08-11T09:31:43.043Z,46
2016-08-11T09:32:43.692Z,50
2016-08-11T09:33:44.096Z,39
2016-08-11T09:34:44.758Z,49
2016-08-11T09:35:45.153Z,47
2016-08-11T09:36:45.834Z,48
2016-08-11T09:37:46.229Z,45
2016-08-11T09:38:46.775Z,54
2016-08-11T09:39:47.298Z,55
2016-08-11T09:40:47.830Z,54
2016-08-11T09:41:48.377Z,53
2016-08-11T09:42:48.914Z,59
2016-08-11T09:43:49.445Z,53
2016-08-11T09:44:49.988Z,51
2016-08-11T09:45:50.500Z,48
2016-08-11T09:46:51.042Z,55
2016-08-11T09:47:51.581Z,45
2016-08-11T09:48:52.115Z,67
2016-08-11T09:49:52.643Z,48
2016-08-11T09:50:53.188Z,51
2016-08-11T09:51:53.861Z,43
2016-08-11T09:52:54.264Z,38
2016-08-11T09:53:54.789Z,37
2016-08-11T09:54:55.363Z,43
2016-08-11T09:55:55.999Z,40
2016-08-11T09:56:56.391Z,38
2016-08-11T09:57:56.943Z,34
2016-08-11T09:58:57.467Z,33
2016-08-11T09:59:58.011Z,33
2016-08-11T10:00:58.695Z,32
2016-08-11T10:01:59.082Z,32
2016-08-11T10:02:59.639Z,32
2016-08-11T10:04:00.160Z,31
2016-08-11T10:05:00.711Z,31
2016-08-11T10:06:01.242Z,31
2016-08-11T10:07:01.781Z,31
2016-08-11T10:08:02.345Z,31
2016-08-11T10:09:02.855Z,31
2016-08-11T10:10:03.379Z,31
2016-08-11T10:11:03.923Z,32
2016-08-11T10:12:04.468Z,32
2016-08-11T10:13:04.983Z,32
2016-08-11T10:14:05.517Z,32
2016-08-11T10:15:06.099Z,34
2016-08-11T10:16:06.593Z,35
2016-08-11T10:17:07.128Z,36
2016-08-11T10:18:07.655Z,36
2016-08-11T10:19:08.205Z,41
2016-08-11T10:20:08.731Z,43
2016-08-11T10:21:09.283Z,42
2016-08-11T10:22:09.812Z,43
2016-08-11T10:23:10.339Z,52
2016-08-11T10:24:10.871Z,46
2016-08-11T10:25:11.405Z,46
2016-08-11T10:26:11.952Z,46
2016-08-11T10:27:12.492Z,45
2016-08-11T10:28:13.045Z,44
2016-08-11T10:29:13.558Z,44
2016-08-11T10:30:14.229Z,44
2016-08-11T10:31:14.651Z,42
2016-08-11T10:32:15.160Z,43
2016-08-11T10:33:15.703Z,44
2016-08-11T10:34:16.224Z,44
2016-08-11T10:35:16.763Z,45
2016-08-11T10:36:17.307Z,52
2016-08-11T10:37:17.826Z,47
2016-08-11T10:38:18.394Z,56
2016-08-11T10:39:18.912Z,48
2016-08-11T10:40:19.456Z,50
2016-08-11T10:41:19.990Z,47
2016-08-11T10:42:20.526Z,46
2016-08-11T10:43:21.067Z,43
2016-08-11T10:44:21.623Z,42
2016-08-11T10:46:22.672Z,40
2016-08-11T10:47:23.207Z,39
2016-08-11T10:48:23.740Z,40
2016-08-11T10:49:24.289Z,41
2016-08-11T10:50:24.820Z,44
2016-08-11T10:51:25.536Z,46
2016-08-11T10:52:25.914Z,50
2016-08-11T10:53:26.417Z,49
2016-08-11T10:54:27.101Z,52
2016-08-11T10:55:27.502Z,62
2016-08-11T10:56:28.028Z,64
2016-08-11T10:57:28.600Z,67
2016-08-11T10:58:29.116Z,63
2016-08-11T10:59:29.636Z,73
2016-08-11T11:00:30.183Z,59
2016-08-11T11:01:30.716Z,70
2016-08-11T11:02:31.242Z,61
2016-08-11T11:03:31.787Z,50
2016-08-11T11:04:32.311Z,45
2016-08-11T11:05:32.867Z,46
2016-08-11T11:06:33.381Z,57
2016-08-11T11:07:33.925Z,70
2016-08-11T11:08:34.471Z,68
2016-08-11T11:09:34.997Z,71
2016-08-11T11:11:36.059Z,71
2016-08-11T11:12:36.602Z,77
2016-08-11T11:13:37.131Z,61
2016-08-11T11:14:37.825Z,53
2016-08-11T11:15:38.225Z,55
2016-08-11T11:16:38.891Z,54
2016-08-11T11:17:39.440Z,49
2016-08-11T11:18:39.846Z,47
2016-08-11T11:19:40.387Z,45
2016-08-11T11:20:40.895Z,43
2016-08-11T11:21:41.528Z,41
2016-08-11T11:22:41.969Z,39
2016-08-11T11:23:42.517Z,38
2016-08-11T11:24:43.190Z,37
2016-08-11T11:25:43.734Z,37
2016-08-11T11:26:44.275Z,36
2016-08-11T11:27:44.666Z,36
2016-08-11T11:28:45.196Z,35
2016-08-11T11:29:45.888Z,36
2016-08-11T11:30:46.267Z,37
2016-08-11T11:31:46.815Z,38
2016-08-11T11:32:47.349Z,39
2016-08-11T11:33:47.876Z,41
2016-08-11T11:34:48.416Z,42
2016-08-11T11:35:48.952Z,43
2016-08-11T11:36:49.474Z,43
2016-08-11T11:37:50.011Z,44
2016-08-11T11:38:50.705Z,45
2016-08-11T11:39:51.110Z,46
2016-08-11T11:40:51.621Z,46
2016-08-11T11:41:52.159Z,48
2016-08-11T11:42:52.731Z,48
2016-08-11T11:43:53.246Z,46
2016-08-11T11:44:53.774Z,44
2016-08-11T11:45:54.310Z,45
2016-08-11T11:46:54.837Z,45
2016-08-11T11:47:55.381Z,45
2016-08-11T11:48:55.923Z,45
2016-08-11T11:49:56.621Z,46
2016-08-11T11:50:57.015Z,43
2016-08-11T11:51:57.672Z,43
2016-08-11T11:52:58.063Z,42
2016-08-11T11:53:58.623Z,41
2016-08-11T11:54:59.160Z,41
2016-08-11T11:55:59.694Z,41
2016-08-11T11:57:00.223Z,48
2016-08-11T11:58:00.755Z,56
2016-08-11T11:59:01.290Z,43
2016-08-11T12:01:02.496Z,41
2016-08-11T12:02:02.896Z,40
2016-08-11T12:03:03.436Z,44
2016-08-11T12:04:03.966Z,44
2016-08-11T12:05:04.500Z,38
2016-08-11T12:06:05.032Z,39
2016-08-11T12:07:05.572Z,36
2016-08-11T12:08:06.095Z,35
2016-08-11T12:09:06.638Z,34
2016-08-11T12:10:07.177Z,34
2016-08-11T12:11:07.724Z,32
2016-08-11T12:12:08.245Z,31
2016-08-11T12:13:08.780Z,31
2016-08-11T12:14:09.325Z,31
2016-08-11T12:15:09.856Z,32
2016-08-11T12:16:10.532Z,32
2016-08-11T12:17:10.919Z,32
2016-08-11T12:18:11.500Z,34
2016-08-11T12:19:12.005Z,35
2016-08-11T12:20:12.695Z,37
2016-08-11T12:21:13.125Z,35
2016-08-11T12:22:13.638Z,37
2016-08-11T12:23:14.147Z,36
2016-08-11T12:24:14.714Z,36
2016-08-11T12:25:15.352Z,39
2016-08-11T12:26:15.771Z,40
2016-08-11T12:27:16.304Z,42
2016-08-11T12:28:16.817Z,41
2016-08-11T12:29:17.363Z,40
2016-08-11T12:31:18.436Z,39
2016-08-11T12:32:19.118Z,38
2016-08-11T12:33:19.532Z,37
2016-08-11T12:34:20.048Z,37
2016-08-11T12:35:20.577Z,37
2016-08-11T12:36:21.132Z,37
2016-08-11T12:37:21.680Z,36
2016-08-11T12:39:22.728Z,39
2016-08-11T12:40:23.550Z,40
2016-08-11T12:41:23.934Z,42
2016-08-11T12:43:24.886Z,47
2016-08-11T12:44:25.411Z,43
2016-08-11T12:46:26.498Z,40
2016-08-11T12:47:27.014Z,49
2016-08-11T12:48:27.560Z,43
2016-08-11T12:49:28.087Z,38
2016-08-11T12:50:28.625Z,35
2016-08-11T12:51:29.147Z,35
2016-08-11T12:52:29.709Z,38
2016-08-11T12:53:30.253Z,37
2016-08-11T12:54:30.771Z,38
2016-08-11T12:55:31.298Z,39
2016-08-11T12:56:31.845Z,39
2016-08-11T12:57:32.372Z,40
2016-08-11T12:58:34.698Z,43
2016-08-11T12:59:33.426Z,42
2016-08-11T13:00:33.978Z,39
2016-08-11T13:01:34.506Z,41
2016-08-11T13:02:35.029Z,42
2016-08-11T13:03:35.580Z,44
2016-08-11T13:04:36.110Z,41
2016-08-11T13:05:36.636Z,39
2016-08-11T13:06:37.323Z,38
2016-08-11T13:07:37.708Z,37
2016-08-11T13:09:38.791Z,36
2016-08-11T13:10:39.474Z,35
2016-08-11T13:11:39.892Z,34
2016-08-11T13:12:40.549Z,33
2016-08-11T13:13:40.933Z,32
2016-08-11T13:14:41.467Z,31
2016-08-11T13:15:42.016Z,30
2016-08-11T13:16:42.550Z,29
2016-08-11T13:17:43.075Z,28
2016-08-11T13:18:43.621Z,28
2016-08-11T13:19:44.157Z,28
2016-08-11T13:20:44.692Z,27
2016-08-11T13:21:45.220Z,26
2016-08-11T13:22:45.760Z,26
2016-08-11T13:23:46.287Z,25
2016-08-11T13:24:47.880Z,25
2016-08-11T13:25:47.530Z,24
2016-08-11T13:26:47.892Z,24
2016-08-11T13:27:48.458Z,24
2016-08-11T13:28:48.959Z,23
2016-08-11T13:29:49.510Z,23
2016-08-11T13:30:50.055Z,22
2016-08-11T13:31:50.591Z,22
2016-08-11T13:32:51.116Z,22
2016-08-11T13:33:51.640Z,22
2016-08-11T13:34:52.206Z,22
2016-08-11T13:35:52.742Z,21
2016-08-11T13:36:53.260Z,21
2016-08-11T13:37:53.787Z,20
2016-08-11T13:38:54.327Z,20
2016-08-11T13:39:54.860Z,19
2016-08-11T13:40:55.411Z,19
2016-08-11T13:41:55.949Z,19
2016-08-11T13:42:56.649Z,19
2016-08-11T13:43:57.032Z,18
2016-08-11T13:44:57.873Z,18
2016-08-11T13:45:58.162Z,18
2016-08-11T13:46:58.819Z,18
2016-08-11T13:47:59.218Z,18
2016-08-11T13:48:59.775Z,19
2016-08-11T13:50:00.603Z,19
2016-08-11T13:51:02.052Z,19
2016-08-11T13:52:01.571Z,19
2016-08-11T13:53:01.934Z,19
2016-08-11T13:54:02.478Z,19
2016-08-11T13:55:03.027Z,19
2016-08-11T13:56:03.566Z,19
2016-08-11T13:57:04.118Z,19
2016-08-11T13:58:04.797Z,19
2016-08-11T13:59:05.193Z,18
2016-08-11T14:00:05.737Z,17
2016-08-11T14:01:06.286Z,17
2016-08-11T14:02:06.846Z,17
2016-08-11T14:03:07.665Z,17
2016-08-11T14:04:07.912Z,17
2016-08-11T14:05:08.598Z,16
2016-08-11T14:06:09.130Z,16
2016-08-11T14:07:09.517Z,16
2016-08-11T14:08:10.198Z,16
2016-08-11T14:09:10.603Z,16
2016-08-11T14:10:11.155Z,16
2016-08-11T14:11:11.685Z,16
2016-08-11T14:12:12.371Z,16
2016-08-11T14:13:12.916Z,16
2016-08-11T14:14:15.108Z,16
2016-08-11T14:15:13.871Z,16
2016-08-11T14:16:14.394Z,16
2016-08-11T14:17:15.089Z,16
2016-08-11T14:18:15.629Z,16
2016-08-11T14:19:16.322Z,16
2016-08-11T14:32:12.127Z,15
2016-08-11T14:38:15.309Z,14
2016-08-11T14:44:18.473Z,12
2016-08-11T14:50:21.841Z,11
2016-08-11T14:52:40.514Z,10
2016-08-11T14:53:45.093Z,9
2016-08-11T14:54:46.524Z,9
2016-08-11T14:55:47.360Z,8
2016-08-11T14:56:47.116Z,7
2016-08-11T14:57:47.347Z,7
2016-08-11T14:58:48.066Z,6
2016-08-11T14:59:48.579Z,6
2016-08-11T15:09:45.023Z,5
2016-08-11T15:10:54.269Z,5
2016-08-11T15:11:54.919Z,5
2016-08-11T15:12:55.457Z,5
2016-08-11T15:13:56.133Z,5
2016-08-11T15:14:56.500Z,5
2016-08-11T15:16:44.358Z,6
2016-08-11T15:17:57.961Z,6
2016-08-11T15:18:58.640Z,6
2016-08-11T15:20:00.346Z,6
2016-08-11T15:20:59.390Z,6
2016-08-11T15:22:00.814Z,7
2016-08-11T15:23:00.721Z,7
2016-08-11T15:24:01.262Z,7
2016-08-11T15:25:01.646Z,7
2016-08-11T15:26:02.311Z,7
2016-08-11T15:27:03.133Z,8
2016-08-11T15:28:03.370Z,8
2016-08-11T15:29:03.882Z,9
2016-08-11T15:30:04.416Z,9
2016-08-11T15:31:56.911Z,9
2016-08-11T15:33:05.854Z,8
2016-08-11T15:34:06.540Z,7
2016-08-11T15:35:07.225Z,7
2016-08-11T15:36:07.592Z,7
2016-08-11T15:37:08.279Z,7
2016-08-11T15:38:09.116Z,7
2016-08-11T15:39:09.223Z,7
2016-08-11T15:40:09.567Z,7
2016-08-11T15:41:09.975Z,7
2016-08-11T15:42:10.911Z,7
2016-08-11T15:43:11.317Z,6
2016-08-11T15:44:11.823Z,6
2016-08-11T15:45:12.373Z,6
2016-08-11T15:47:13.433Z,6
2016-08-11T15:48:13.778Z,6
2016-08-11T15:49:14.635Z,6
2016-08-11T15:50:15.013Z,6
2016-08-11T15:51:15.807Z,5
2016-08-11T15:52:15.942Z,5
2016-08-11T15:53:16.427Z,5
2016-08-11T15:54:17.240Z,5
2016-08-11T15:55:17.630Z,5
2016-08-11T15:56:18.143Z,5
2016-08-11T15:57:18.544Z,4
2016-08-11T15:58:19.236Z,4
2016-08-11T15:59:19.578Z,4
2016-08-11T16:00:20.129Z,4
2016-08-11T16:02:22.811Z,3
2016-08-11T16:03:21.847Z,3
2016-08-11T16:04:22.366Z,3
2016-08-11T16:05:22.900Z,3
2016-08-11T16:06:23.439Z,3
2016-08-11T16:07:23.955Z,3
2016-08-11T16:08:24.619Z,4
2016-08-11T16:09:24.853Z,4
2016-08-11T16:10:25.709Z,4
2016-08-11T16:11:26.053Z,4
2016-08-11T16:12:26.608Z,5
2016-08-11T16:13:26.993Z,5
2016-08-11T16:14:27.494Z,6
2016-08-11T16:15:28.032Z,6
2016-08-11T16:16:28.424Z,6
2016-08-11T16:17:29.260Z,5
2016-08-11T16:18:29.539Z,5
2016-08-11T16:19:30.049Z,5
2016-08-11T16:20:30.743Z,5
2016-08-11T16:21:31.288Z,5
2016-08-11T16:22:31.835Z,4
2016-08-11T16:23:32.219Z,4
2016-08-11T16:24:32.922Z,4
2016-08-11T16:25:33.300Z,4
2016-08-11T16:26:33.994Z,4
2016-08-11T16:27:34.386Z,4
2016-08-11T16:28:34.944Z,4
2016-08-11T16:29:35.479Z,4
2016-08-11T16:30:36.014Z,4
2016-08-11T16:31:36.555Z,4
2016-08-11T16:32:38.747Z,4
2016-08-11T16:33:37.645Z,4
2016-08-11T16:34:38.328Z,4
2016-08-11T16:35:38.875Z,3
2016-08-11T16:36:39.448Z,3
2016-08-11T16:37:39.959Z,3
2016-08-11T16:38:40.496Z,3
2016-08-11T16:39:40.889Z,3
2016-08-11T16:40:41.437Z,3
2016-08-11T16:41:41.973Z,3
2016-08-11T16:42:42.664Z,4
2016-08-11T16:43:43.058Z,4
2016-08-11T16:44:43.780Z,4
2016-08-11T16:45:44.456Z,4
2016-08-11T16:46:44.837Z,4
2016-08-11T16:47:45.549Z,5
2016-08-11T16:48:45.935Z,5
2016-08-11T16:49:46.323Z,5
2016-08-11T16:50:46.868Z,5
2016-08-11T16:51:47.705Z,4
2016-08-11T16:52:48.105Z,4
2016-08-11T16:53:48.495Z,4
2016-08-11T16:54:49.187Z,4
2016-08-11T16:55:49.577Z,4
2016-08-11T16:56:50.156Z,3
2016-08-11T16:57:50.702Z,3
2016-08-11T16:58:51.199Z,3
2016-08-11T16:59:52.050Z,2
2016-08-11T17:00:52.430Z,2
2016-08-11T17:01:53.125Z,2
2016-08-11T17:02:53.509Z,2
2016-08-11T17:03:53.907Z,2
2016-08-11T17:04:54.606Z,2
2016-08-11T17:05:55.003Z,2
2016-08-11T17:06:55.533Z,2
2016-08-11T17:07:56.226Z,2
2016-08-11T17:08:56.775Z,2
2016-08-11T17:09:57.307Z,2
2016-08-11T17:10:57.700Z,2
2016-08-11T17:11:58.393Z,2
2016-08-11T17:12:58.930Z,2
2016-08-11T17:13:59.627Z,2
2016-08-11T17:14:59.870Z,2
2016-08-11T17:16:00.714Z,2
2016-08-11T17:17:01.107Z,2
2016-08-11T17:18:01.496Z,2
2016-08-11T17:19:02.200Z,2
2016-08-11T17:20:02.874Z,2
2016-08-11T17:21:04.619Z,2
2016-08-11T17:22:03.659Z,2
2016-08-11T17:23:04.356Z,1
2016-08-11T17:24:04.749Z,1
2016-08-11T17:25:05.453Z,1
2016-08-11T17:26:05.830Z,1
2016-08-11T17:27:06.378Z,1
2016-08-11T17:28:07.074Z,1
2016-08-11T17:29:07.508Z,1
2016-08-11T17:30:08.311Z,1
2016-08-11T17:31:08.703Z,1
2016-08-11T17:32:09.097Z,1
2016-08-11T17:33:09.790Z,1
2016-08-11T17:34:10.333Z,1
2016-08-11T17:35:10.724Z,1
2016-08-11T17:36:11.263Z,1
2016-08-11T17:37:11.815Z,1
2016-08-11T17:38:12.349Z,1
2016-08-11T17:39:13.037Z,1
2016-08-11T17:40:13.426Z,1
2016-08-11T17:41:13.972Z,1
2016-08-11T17:42:14.822Z,1
2016-08-11T17:43:15.251Z,1
2016-08-11T17:44:15.630Z,1
2016-08-11T17:45:16.285Z,1
2016-08-11T17:46:16.832Z,1
2016-08-11T17:47:17.370Z,1
2016-08-11T17:48:18.070Z,1
2016-08-11T17:49:18.451Z,1
2016-08-11T17:50:18.847Z,1
2016-08-11T17:51:19.534Z,1
2016-08-11T17:52:19.935Z,1
2016-08-11T17:53:20.477Z,1
2016-08-11T17:54:21.009Z,1
2016-08-11T17:55:21.552Z,1
2016-08-11T17:56:22.093Z,1
2016-08-11T17:57:22.644Z,1
2016-08-11T17:58:23.188Z,1
2016-08-11T17:59:23.871Z,1
2016-08-11T18:00:24.561Z,1
2016-08-11T18:02:03.577Z,1
2016-08-11T18:03:25.887Z,1
2016-08-11T18:04:26.580Z,1
2016-08-11T18:05:27.142Z,1
2016-08-11T18:06:27.835Z,1
2016-08-11T18:07:28.069Z,1
2016-08-11T18:08:28.764Z,1
2016-08-11T18:09:29.453Z,1
2016-08-11T18:10:29.694Z,1
2016-08-11T18:11:30.239Z,1
2016-08-11T18:12:30.792Z,1
2016-08-11T18:13:31.325Z,1
2016-08-11T18:14:32.016Z,1
2016-08-11T18:15:32.406Z,1
2016-08-11T18:17:16.064Z,1
2016-08-11T18:18:34.179Z,1
2016-08-11T18:19:34.571Z,1
2016-08-11T18:20:35.264Z,1
2016-08-11T18:21:35.682Z,1
2016-08-11T18:22:36.195Z,1
2016-08-11T18:24:37.570Z,1
2016-08-11T18:25:38.113Z,1
2016-08-11T18:26:38.642Z,1
2016-08-11T18:27:38.858Z,1
2016-08-11T18:28:39.579Z,1
2016-08-11T18:29:40.088Z,1
2016-08-11T18:30:40.487Z,1
2016-08-11T18:32:37.214Z,1
2016-08-11T18:33:42.121Z,1
2016-08-11T18:34:42.811Z,1
2016-08-11T18:35:43.199Z,1
2016-08-11T18:36:43.892Z,1
2016-08-11T18:38:03.494Z,0.00
2016-08-11T18:39:04.199Z,0.00
2016-08-11T18:40:04.711Z,0.00
2016-08-11T18:41:05.244Z,0.00
2016-08-11T18:42:05.617Z,0.00
2016-08-11T18:43:06.018Z,0.00
2016-08-11T18:44:06.842Z,0.00
2016-08-11T18:45:07.076Z,0.00
2016-08-11T18:46:07.626Z,0.00
2016-08-11T18:47:08.161Z,0.00
2016-08-11T18:48:08.698Z,0.00
2016-08-11T18:49:09.243Z,0.00
2016-08-11T18:50:09.790Z,0.00
2016-08-11T18:51:10.329Z,0.00
2016-08-11T18:52:11.019Z,0.00
2016-08-11T18:53:11.413Z,0.00
2016-08-11T18:54:13.003Z,0.00
2016-08-11T18:55:12.492Z,0.00
2016-08-11T18:56:13.027Z,0.00
2016-08-11T18:57:13.579Z,0.00
2016-08-11T18:58:14.112Z,0.00
2016-08-11T18:59:14.654Z,0.00
2016-08-11T19:00:15.199Z,0.00
2016-08-11T19:01:15.737Z,0.00
2016-08-11T19:02:16.315Z,0.00
2016-08-11T19:03:16.980Z,0.00
2016-08-11T19:04:17.367Z,0.00
2016-08-11T19:05:17.907Z,0.00
2016-08-11T19:06:18.450Z,0.00
2016-08-11T19:07:18.985Z,0.00
2016-08-11T19:08:19.524Z,0.00
2016-08-11T19:09:20.071Z,0.00
2016-08-11T19:10:20.612Z,0.00
2016-08-11T19:11:21.322Z,0.00
2016-08-11T19:12:21.695Z,0.00
2016-08-11T19:13:22.535Z,0.00
2016-08-11T19:14:22.785Z,0.00
2016-08-11T19:15:23.316Z,0.00
2016-08-11T19:16:23.855Z,0.00
2016-08-11T19:17:24.399Z,0.00
2016-08-11T19:18:24.937Z,0.00
2016-08-11T19:19:25.635Z,0.00
2016-08-11T19:20:26.056Z,0.00
2016-08-11T19:21:26.577Z,0.00
2016-08-11T19:22:27.112Z,0.00
2016-08-11T19:23:27.812Z,0.00
2016-08-11T19:24:28.200Z,0.00
2016-08-11T19:25:28.739Z,0.00
2016-08-11T19:26:29.279Z,0.00
2016-08-11T19:27:29.839Z,0.00
2016-08-11T19:28:30.520Z,0.00
2016-08-11T19:29:30.923Z,0.00
2016-08-11T19:30:31.480Z,0.00
2016-08-11T19:31:32.002Z,0.00
2016-08-11T19:32:32.539Z,0.00
2016-08-11T19:33:33.083Z,0.00
2016-08-11T19:34:33.626Z,0.00
2016-08-11T19:35:34.332Z,0.00
2016-08-11T19:36:34.715Z,0.00
2016-08-11T19:37:35.260Z,0.00
2016-08-11T19:38:35.956Z,0.00
2016-08-11T19:39:36.494Z,0.00
2016-08-11T19:40:36.885Z,0.00
2016-08-11T19:41:37.431Z,0.00
2016-08-11T19:42:37.968Z,0.00
2016-08-11T19:43:38.514Z,0.00
2016-08-11T19:44:39.216Z,0.00
2016-08-11T19:45:39.599Z,0.00
2016-08-11T19:46:40.295Z,0.00
2016-08-11T19:47:40.836Z,0.00
2016-08-11T19:48:41.393Z,0.00
2016-08-11T19:49:41.768Z,0.00
2016-08-11T19:50:43.059Z,0.00
2016-08-11T19:51:42.848Z,0.00
2016-08-11T19:52:43.393Z,0.00
2016-08-11T19:53:43.947Z,0.00
2016-08-11T19:54:44.483Z,0.00
2016-08-11T19:55:45.023Z,0.00
2016-08-11T19:56:45.574Z,0.00
2016-08-11T19:57:46.117Z,0.00
2016-08-11T19:58:46.848Z,0.00
2016-08-11T19:59:47.201Z,0.00
2016-08-11T20:00:47.747Z,0.00
2016-08-11T20:02:27.197Z,0.00
2016-08-11T20:03:49.377Z,0.00
2016-08-11T20:04:49.916Z,0.00
2016-08-11T20:05:50.464Z,0.00
2016-08-11T20:06:51.012Z,0.00
2016-08-11T20:07:51.571Z,0.00
2016-08-11T20:08:52.093Z,0.00
2016-08-11T20:09:52.635Z,0.00
2016-08-11T20:10:53.174Z,0.00
2016-08-11T20:11:53.721Z,0.00
2016-08-11T20:12:54.271Z,0.00
2016-08-11T20:13:54.809Z,0.00
2016-08-11T20:14:55.352Z,0.00
2016-08-11T20:15:55.892Z,0.00
2016-08-11T20:17:44.068Z,0.00
2016-08-11T20:18:57.828Z,0.00
2016-08-11T20:19:58.063Z,0.00
2016-08-11T20:20:58.601Z,0.00
2016-08-11T20:21:59.305Z,0.00
2016-08-11T20:22:59.696Z,0.00
2016-08-11T20:24:00.233Z,0.00
2016-08-11T20:25:00.927Z,0.00
2016-08-11T20:26:01.466Z,0.00
2016-08-11T20:27:01.903Z,0.00
2016-08-11T20:28:02.406Z,0.00
2016-08-11T20:29:02.951Z,0.00
2016-08-11T20:30:03.491Z,0.00
2016-08-11T20:31:04.042Z,0.00
2016-08-11T20:32:52.081Z,0.00
2016-08-11T20:34:05.829Z,0.00
2016-08-11T20:35:06.220Z,0.00
2016-08-11T20:36:06.929Z,0.00
2016-08-11T20:37:07.320Z,0.00
2016-08-11T20:38:07.847Z,0.00
2016-08-11T20:39:08.397Z,0.00
2016-08-11T20:40:08.927Z,0.00
2016-08-11T20:41:09.465Z,0.00
2016-08-11T20:42:10.164Z,0.00
2016-08-11T20:43:10.548Z,0.00
2016-08-11T20:44:11.091Z,0.00
2016-08-11T20:45:11.783Z,0.00
2016-08-11T20:46:12.194Z,0.00
2016-08-11T20:48:04.690Z,0.00
2016-08-11T20:49:13.950Z,0.00
2016-08-11T20:50:14.488Z,0.00
2016-08-11T20:51:14.887Z,0.00
2016-08-11T20:52:15.425Z,0.00
2016-08-11T20:53:16.118Z,0.00
2016-08-11T20:54:16.509Z,0.00
2016-08-11T20:55:17.202Z,0.00
2016-08-11T20:56:17.594Z,0.00
2016-08-11T20:57:18.285Z,0.00
2016-08-11T20:58:18.687Z,0.00
2016-08-11T20:59:19.371Z,0.00
2016-08-11T21:00:19.762Z,0.00
2016-08-11T21:01:20.300Z,0.00
2016-08-11T21:03:08.459Z,0.00
2016-08-11T21:04:21.924Z,0.00
2016-08-11T21:05:22.617Z,0.00
2016-08-11T21:06:23.154Z,0.00
2016-08-11T21:07:23.544Z,0.00
2016-08-11T21:08:24.091Z,0.00
2016-08-11T21:09:24.638Z,0.00
2016-08-11T21:10:25.178Z,0.00
2016-08-11T21:11:25.730Z,0.00
2016-08-11T21:12:26.276Z,0.00
2016-08-11T21:13:26.824Z,0.00
2016-08-11T21:14:27.360Z,0.00
2016-08-11T21:15:27.899Z,0.00
2016-08-11T21:16:28.468Z,0.00
2016-08-11T21:18:20.815Z,0.00
2016-08-11T21:19:30.066Z,0.00
2016-08-11T21:20:30.772Z,0.00
2016-08-11T21:21:31.147Z,0.00
2016-08-11T21:22:31.691Z,0.00
2016-08-11T21:23:32.525Z,0.00
2016-08-11T21:24:32.924Z,0.00
2016-08-11T21:25:33.462Z,0.00
2016-08-11T21:26:33.858Z,0.00
2016-08-11T21:27:34.395Z,0.00
2016-08-11T21:28:34.940Z,0.00
2016-08-11T21:29:35.479Z,0.00
2016-08-11T21:30:36.179Z,0.00
2016-08-11T21:31:36.570Z,0.00
2016-08-11T21:33:37.646Z,0.00
2016-08-11T21:34:38.197Z,0.00
2016-08-11T21:35:38.764Z,0.00
2016-08-11T21:36:39.278Z,0.00
2016-08-11T21:37:39.971Z,0.00
2016-08-11T21:38:40.510Z,0.00
2016-08-11T21:39:40.907Z,0.00
2016-08-11T21:40:41.443Z,0.00
2016-08-11T21:41:41.998Z,0.00
2016-08-11T21:42:42.537Z,0.00
2016-08-11T21:43:43.073Z,0.00
2016-08-11T21:44:43.633Z,0.00
2016-08-11T21:45:44.453Z,0.00
2016-08-11T21:46:45.000Z,0.00
2016-08-11T21:48:45.794Z,0.00
2016-08-11T21:49:46.332Z,0.00
2016-08-11T21:50:46.882Z,0.00
2016-08-11T21:51:47.430Z,0.00
2016-08-11T21:52:48.122Z,0.00
2016-08-11T21:53:48.668Z,0.00
2016-08-11T21:54:49.056Z,0.00
2016-08-11T21:55:49.598Z,0.00
2016-08-11T21:56:50.136Z,0.00
2016-08-11T21:57:50.681Z,0.00
2016-08-11T21:58:51.220Z,0.00
2016-08-11T21:59:51.911Z,0.00
2016-08-11T22:00:52.303Z,0.00
2016-08-11T22:01:52.847Z,0.00
2016-08-11T22:02:53.388Z,0.00
2016-08-11T22:03:53.934Z,0.00
2016-08-11T22:04:54.468Z,0.00
2016-08-11T22:05:55.007Z,0.00
2016-08-11T22:06:55.552Z,0.00
2016-08-11T22:07:56.098Z,0.00
2016-08-11T22:08:56.636Z,0.00
2016-08-11T22:09:57.186Z,0.00
2016-08-11T22:10:57.717Z,0.00
2016-08-11T22:11:58.255Z,0.00
2016-08-11T22:12:58.947Z,0.00
2016-08-11T22:13:59.347Z,0.00
2016-08-11T22:15:00.035Z,0.00
2016-08-11T22:16:00.420Z,0.00
2016-08-11T22:17:00.989Z,0.00
2016-08-11T22:18:01.513Z,0.00
2016-08-11T22:19:02.058Z,0.00
2016-08-11T22:20:02.596Z,0.00
2016-08-11T22:21:03.141Z,0.00
2016-08-11T22:22:03.677Z,0.00
2016-08-11T22:23:04.227Z,0.00
2016-08-11T22:24:04.762Z,0.00
2016-08-11T22:25:05.312Z,0.00
2016-08-11T22:26:05.854Z,0.00
2016-08-11T22:27:06.401Z,0.00
2016-08-11T22:28:06.949Z,0.00
2016-08-11T22:29:07.784Z,0.00
2016-08-11T22:30:08.029Z,0.00
2016-08-11T22:31:08.568Z,0.00
2016-08-11T22:32:09.138Z,0.00
2016-08-11T22:33:09.653Z,0.00
2016-08-11T22:34:10.198Z,0.00
2016-08-11T22:35:10.732Z,0.00
2016-08-11T22:36:11.279Z,0.00
2016-08-11T22:37:11.839Z,0.00
2016-08-11T22:38:12.355Z,0.00
2016-08-11T22:39:12.905Z,0.00
2016-08-11T22:40:13.594Z,0.00
2016-08-11T22:41:14.131Z,0.00
2016-08-11T22:42:14.678Z,0.00
2016-08-11T22:43:15.067Z,0.00
2016-08-11T22:44:15.616Z,0.00
2016-08-11T22:45:16.153Z,0.00
2016-08-11T22:46:16.696Z,0.00
2016-08-11T22:47:17.242Z,0.00
2016-08-11T22:48:17.932Z,0.00
2016-08-11T22:49:18.472Z,0.00
2016-08-11T22:50:18.867Z,0.00
2016-08-11T22:51:19.405Z,0.00
2016-08-11T22:52:19.951Z,0.00
2016-08-11T22:53:20.484Z,0.00
2016-08-11T22:54:21.024Z,0.00
2016-08-11T22:55:21.723Z,0.00
2016-08-11T22:56:22.118Z,0.00
2016-08-11T22:57:22.652Z,0.00
2016-08-11T22:58:23.217Z,0.00
2016-08-11T22:59:23.738Z,0.00
2016-08-11T23:00:24.279Z,0.00
2016-08-11T23:01:24.826Z,0.00
2016-08-11T23:02:25.380Z,0.00
2016-08-11T23:03:26.074Z,0.00
2016-08-11T23:04:26.462Z,0.00
2016-08-11T23:05:27.155Z,0.00
2016-08-11T23:06:27.701Z,0.00
2016-08-11T23:07:28.100Z,0.00
2016-08-11T23:08:28.783Z,0.00
2016-08-11T23:09:29.175Z,0.00
2016-08-11T23:10:29.867Z,0.00
2016-08-11T23:11:30.262Z,0.00
2016-08-11T23:12:30.811Z,0.00
2016-08-11T23:13:31.346Z,0.00
2016-08-11T23:14:32.052Z,0.00
2016-08-11T23:15:32.433Z,0.00
2016-08-11T23:16:32.971Z,0.00
2016-08-11T23:18:16.629Z,0.00
2016-08-11T23:19:34.602Z,0.00
2016-08-11T23:20:35.143Z,0.00
2016-08-11T23:21:35.687Z,0.00
2016-08-11T23:22:37.885Z,0.00
2016-08-11T23:23:36.918Z,0.00
2016-08-11T23:24:37.312Z,0.00
2016-08-11T23:25:37.856Z,0.00
2016-08-11T23:26:38.403Z,0.00
2016-08-11T23:27:38.942Z,0.00
2016-08-11T23:28:39.506Z,0.00
2016-08-11T23:29:40.170Z,0.00
2016-08-11T23:30:40.563Z,0.00
2016-08-11T23:31:41.111Z,0.00
2016-08-11T23:33:24.915Z,0.00
2016-08-11T23:34:42.740Z,0.00
2016-08-11T23:35:43.427Z,0.00
2016-08-11T23:36:43.971Z,0.00
2016-08-11T23:37:44.523Z,0.00
2016-08-11T23:38:44.938Z,0.00
2016-08-11T23:39:45.460Z,0.00
2016-08-11T23:40:46.007Z,0.00
2016-08-11T23:41:46.550Z,0.00
2016-08-11T23:42:47.086Z,0.00
2016-08-11T23:43:47.935Z,0.00
2016-08-11T23:44:48.180Z,0.00
2016-08-11T23:45:48.864Z,0.00
2016-08-11T23:46:49.256Z,0.00
2016-08-11T23:48:45.985Z,0.00
2016-08-11T23:49:50.883Z,0.00
2016-08-11T23:50:51.574Z,0.00
2016-08-11T23:51:52.110Z,0.00
2016-08-11T23:52:52.502Z,0.00
2016-08-11T23:53:53.201Z,0.00
2016-08-11T23:54:53.582Z,0.00
2016-08-11T23:55:54.129Z,0.00
2016-08-11T23:56:54.726Z,0.00
2016-08-11T23:57:55.213Z,0.00
2016-08-11T23:58:55.758Z,0.00
2016-08-11T23:59:56.298Z,0.00
